sensor_id;sensor_type;location;lat;lon;timestamp;P1;durP1;ratioP1;P2;durP2;ratioP2
24743;SDS011;12844;52.110;5.548;2022-10-15T00:00:35;4.28;;;3.42;;
24743;SDS011;12844;52.110;5.548;2022-10-15T00:03:00;4.15;;;3.17;;
24743;SDS011;12844;52.110;5.548;2022-10-15T00:05:26;3.40;;;3.10;;
24743;SDS011;12844;52.110;5.548;2022-10-15T00:07:52;3.47;;;2.95;;
24743;SDS011;12844;52.110;5.548;2022-10-15T00:10:17;4.30;;;3.20;;
24743;SDS011;12844;52.110;5.548;2022-10-15T00:12:44;3.58;;;3.03;;
24743;SDS011;12844;52.110;5.548;2022-10-15T00:15:10;4.35;;;3.15;;
24743;SDS011;12844;52.110;5.548;2022-10-15T00:17:36;3.85;;;2.90;;
24743;SDS011;12844;52.110;5.548;2022-10-15T00:20:06;3.35;;;2.90;;
24743;SDS011;12844;52.110;5.548;2022-10-15T00:22:34;3.67;;;3.13;;
24743;SDS011;12844;52.110;5.548;2022-10-15T00:25:00;3.50;;;3.00;;
24743;SDS011;12844;52.110;5.548;2022-10-15T00:27:26;3.85;;;3.25;;
24743;SDS011;12844;52.110;5.548;2022-10-15T00:29:52;3.53;;;2.90;;
24743;SDS011;12844;52.110;5.548;2022-10-15T00:32:17;3.80;;;2.65;;
24743;SDS011;12844;52.110;5.548;2022-10-15T00:34:43;3.88;;;2.92;;
24743;SDS011;12844;52.110;5.548;2022-10-15T00:37:08;5.75;;;2.67;;
24743;SDS011;12844;52.110;5.548;2022-10-15T00:39:34;3.72;;;2.90;;
24743;SDS011;12844;52.110;5.548;2022-10-15T00:42:00;4.45;;;3.42;;
24743;SDS011;12844;52.110;5.548;2022-10-15T00:51:58;4.88;;;3.55;;
24743;SDS011;12844;52.110;5.548;2022-10-15T00:54:27;3.78;;;3.15;;
24743;SDS011;12844;52.110;5.548;2022-10-15T00:56:57;4.18;;;3.40;;
24743;SDS011;12844;52.110;5.548;2022-10-15T00:59:24;3.83;;;3.35;;
24743;SDS011;12844;52.110;5.548;2022-10-15T01:01:51;3.45;;;3.15;;
24743;SDS011;12844;52.110;5.548;2022-10-15T01:04:17;4.25;;;2.83;;
24743;SDS011;12844;52.110;5.548;2022-10-15T01:06:43;4.20;;;3.10;;
24743;SDS011;12844;52.110;5.548;2022-10-15T01:09:10;3.58;;;2.88;;
24743;SDS011;12844;52.110;5.548;2022-10-15T01:14:19;4.95;;;3.42;;
24743;SDS011;12844;52.110;5.548;2022-10-15T01:17:09;4.40;;;3.13;;
24743;SDS011;12844;52.110;5.548;2022-10-15T01:30:39;4.13;;;3.30;;
24743;SDS011;12844;52.110;5.548;2022-10-15T01:35:58;4.43;;;3.95;;
24743;SDS011;12844;52.110;5.548;2022-10-15T01:38:40;3.83;;;3.40;;
24743;SDS011;12844;52.110;5.548;2022-10-15T01:41:24;4.03;;;3.60;;
24743;SDS011;12844;52.110;5.548;2022-10-15T01:44:04;5.38;;;3.60;;
24743;SDS011;12844;52.110;5.548;2022-10-15T01:49:09;4.25;;;3.55;;
24743;SDS011;12844;52.110;5.548;2022-10-15T01:51:38;4.40;;;3.42;;
24743;SDS011;12844;52.110;5.548;2022-10-15T01:54:06;3.97;;;3.58;;
24743;SDS011;12844;52.110;5.548;2022-10-15T01:56:35;5.22;;;4.05;;
24743;SDS011;12844;52.110;5.548;2022-10-15T01:59:02;4.50;;;3.72;;
24743;SDS011;12844;52.110;5.548;2022-10-15T02:01:29;4.95;;;3.95;;
24743;SDS011;12844;52.110;5.548;2022-10-15T02:03:55;4.22;;;3.72;;
24743;SDS011;12844;52.110;5.548;2022-10-15T02:09:06;4.43;;;3.67;;
24743;SDS011;12844;52.110;5.548;2022-10-15T02:11:59;4.30;;;3.65;;
24743;SDS011;12844;52.110;5.548;2022-10-15T02:14:47;4.57;;;3.65;;
24743;SDS011;12844;52.110;5.548;2022-10-15T02:17:22;4.97;;;3.70;;
24743;SDS011;12844;52.110;5.548;2022-10-15T02:23:16;4.20;;;3.72;;
24743;SDS011;12844;52.110;5.548;2022-10-15T02:25:45;4.53;;;3.60;;
24743;SDS011;12844;52.110;5.548;2022-10-15T02:28:12;4.03;;;3.45;;
24743;SDS011;12844;52.110;5.548;2022-10-15T02:30:40;4.60;;;3.58;;
24743;SDS011;12844;52.110;5.548;2022-10-15T02:33:09;6.22;;;3.70;;
24743;SDS011;12844;52.110;5.548;2022-10-15T02:35:36;4.38;;;3.85;;
24743;SDS011;12844;52.110;5.548;2022-10-15T02:38:04;4.30;;;3.60;;
24743;SDS011;12844;52.110;5.548;2022-10-15T02:40:32;4.20;;;3.22;;
24743;SDS011;12844;52.110;5.548;2022-10-15T02:42:59;4.85;;;3.97;;
24743;SDS011;12844;52.110;5.548;2022-10-15T02:45:29;4.60;;;3.80;;
24743;SDS011;12844;52.110;5.548;2022-10-15T02:47:55;4.90;;;4.00;;
24743;SDS011;12844;52.110;5.548;2022-10-15T02:50:20;4.72;;;4.07;;
24743;SDS011;12844;52.110;5.548;2022-10-15T02:52:46;4.55;;;3.60;;
24743;SDS011;12844;52.110;5.548;2022-10-15T02:55:11;5.00;;;3.50;;
24743;SDS011;12844;52.110;5.548;2022-10-15T02:57:37;4.90;;;4.13;;
24743;SDS011;12844;52.110;5.548;2022-10-15T03:00:03;6.00;;;4.15;;
24743;SDS011;12844;52.110;5.548;2022-10-15T03:02:29;4.43;;;3.65;;
24743;SDS011;12844;52.110;5.548;2022-10-15T03:04:54;4.82;;;3.97;;
24743;SDS011;12844;52.110;5.548;2022-10-15T03:07:20;5.38;;;4.22;;
24743;SDS011;12844;52.110;5.548;2022-10-15T03:09:45;4.93;;;3.85;;
24743;SDS011;12844;52.110;5.548;2022-10-15T03:12:11;5.10;;;4.20;;
24743;SDS011;12844;52.110;5.548;2022-10-15T03:14:36;4.65;;;3.95;;
24743;SDS011;12844;52.110;5.548;2022-10-15T03:17:02;5.38;;;4.40;;
24743;SDS011;12844;52.110;5.548;2022-10-15T03:19:27;5.57;;;4.35;;
24743;SDS011;12844;52.110;5.548;2022-10-15T03:21:53;5.32;;;4.05;;
24743;SDS011;12844;52.110;5.548;2022-10-15T03:24:18;4.82;;;3.97;;
24743;SDS011;12844;52.110;5.548;2022-10-15T03:26:44;5.07;;;4.18;;
24743;SDS011;12844;52.110;5.548;2022-10-15T03:29:10;5.53;;;4.25;;
24743;SDS011;12844;52.110;5.548;2022-10-15T03:31:35;4.88;;;3.88;;
24743;SDS011;12844;52.110;5.548;2022-10-15T03:34:01;4.72;;;3.83;;
24743;SDS011;12844;52.110;5.548;2022-10-15T03:36:26;4.80;;;4.10;;
24743;SDS011;12844;52.110;5.548;2022-10-15T03:38:52;5.13;;;4.28;;
24743;SDS011;12844;52.110;5.548;2022-10-15T03:41:17;4.90;;;4.13;;
24743;SDS011;12844;52.110;5.548;2022-10-15T03:43:43;5.53;;;4.13;;
24743;SDS011;12844;52.110;5.548;2022-10-15T03:46:08;4.85;;;3.92;;
24743;SDS011;12844;52.110;5.548;2022-10-15T03:48:34;6.30;;;4.43;;
24743;SDS011;12844;52.110;5.548;2022-10-15T03:50:59;5.53;;;4.30;;
24743;SDS011;12844;52.110;5.548;2022-10-15T03:53:25;4.97;;;4.10;;
24743;SDS011;12844;52.110;5.548;2022-10-15T03:55:50;5.15;;;3.97;;
24743;SDS011;12844;52.110;5.548;2022-10-15T03:58:16;4.78;;;3.88;;
24743;SDS011;12844;52.110;5.548;2022-10-15T04:00:42;5.03;;;4.00;;
24743;SDS011;12844;52.110;5.548;2022-10-15T04:03:08;5.68;;;3.95;;
24743;SDS011;12844;52.110;5.548;2022-10-15T04:05:34;4.80;;;4.00;;
24743;SDS011;12844;52.110;5.548;2022-10-15T04:08:00;4.88;;;4.07;;
24743;SDS011;12844;52.110;5.548;2022-10-15T04:10:26;4.47;;;3.88;;
24743;SDS011;12844;52.110;5.548;2022-10-15T04:12:51;5.28;;;4.25;;
24743;SDS011;12844;52.110;5.548;2022-10-15T04:15:17;5.03;;;4.32;;
24743;SDS011;12844;52.110;5.548;2022-10-15T04:17:42;5.75;;;4.22;;
24743;SDS011;12844;52.110;5.548;2022-10-15T04:20:08;5.05;;;4.40;;
24743;SDS011;12844;52.110;5.548;2022-10-15T04:22:35;4.75;;;4.15;;
24743;SDS011;12844;52.110;5.548;2022-10-15T04:25:01;4.70;;;4.10;;
24743;SDS011;12844;52.110;5.548;2022-10-15T04:27:27;5.18;;;4.25;;
24743;SDS011;12844;52.110;5.548;2022-10-15T04:29:53;5.57;;;4.32;;
24743;SDS011;12844;52.110;5.548;2022-10-15T04:32:18;4.93;;;4.43;;
24743;SDS011;12844;52.110;5.548;2022-10-15T04:34:45;5.03;;;4.22;;
24743;SDS011;12844;52.110;5.548;2022-10-15T04:37:11;5.35;;;4.30;;
24743;SDS011;12844;52.110;5.548;2022-10-15T04:39:36;5.22;;;4.47;;
24743;SDS011;12844;52.110;5.548;2022-10-15T04:42:02;5.60;;;4.47;;
24743;SDS011;12844;52.110;5.548;2022-10-15T04:44:28;4.80;;;4.18;;
24743;SDS011;12844;52.110;5.548;2022-10-15T04:46:53;5.53;;;4.53;;
24743;SDS011;12844;52.110;5.548;2022-10-15T04:49:19;5.45;;;4.40;;
24743;SDS011;12844;52.110;5.548;2022-10-15T04:51:44;4.82;;;4.03;;
24743;SDS011;12844;52.110;5.548;2022-10-15T04:54:10;5.22;;;4.32;;
24743;SDS011;12844;52.110;5.548;2022-10-15T04:56:35;5.15;;;4.28;;
24743;SDS011;12844;52.110;5.548;2022-10-15T04:59:01;5.30;;;4.35;;
24743;SDS011;12844;52.110;5.548;2022-10-15T05:01:30;4.63;;;4.00;;
24743;SDS011;12844;52.110;5.548;2022-10-15T05:03:55;4.50;;;4.05;;
24743;SDS011;12844;52.110;5.548;2022-10-15T05:06:21;5.18;;;4.07;;
24743;SDS011;12844;52.110;5.548;2022-10-15T05:08:48;5.25;;;4.20;;
24743;SDS011;12844;52.110;5.548;2022-10-15T05:11:15;5.50;;;4.63;;
24743;SDS011;12844;52.110;5.548;2022-10-15T05:13:45;4.43;;;3.93;;
24743;SDS011;12844;52.110;5.548;2022-10-15T05:16:12;4.63;;;4.03;;
24743;SDS011;12844;52.110;5.548;2022-10-15T05:18:40;4.57;;;4.00;;
24743;SDS011;12844;52.110;5.548;2022-10-15T05:21:08;5.22;;;4.40;;
24743;SDS011;12844;52.110;5.548;2022-10-15T05:23:34;5.15;;;4.40;;
24743;SDS011;12844;52.110;5.548;2022-10-15T05:26:07;4.72;;;4.20;;
24743;SDS011;12844;52.110;5.548;2022-10-15T05:28:36;5.10;;;4.50;;
24743;SDS011;12844;52.110;5.548;2022-10-15T05:31:09;5.32;;;4.50;;
24743;SDS011;12844;52.110;5.548;2022-10-15T05:33:36;5.03;;;4.45;;
24743;SDS011;12844;52.110;5.548;2022-10-15T05:36:20;6.18;;;4.63;;
24743;SDS011;12844;52.110;5.548;2022-10-15T05:38:51;5.05;;;4.38;;
24743;SDS011;12844;52.110;5.548;2022-10-15T05:41:18;5.88;;;4.97;;
24743;SDS011;12844;52.110;5.548;2022-10-15T05:43:45;6.20;;;5.18;;
24743;SDS011;12844;52.110;5.548;2022-10-15T05:46:14;5.85;;;5.05;;
24743;SDS011;12844;52.110;5.548;2022-10-15T05:48:41;5.95;;;4.93;;
24743;SDS011;12844;52.110;5.548;2022-10-15T05:51:09;6.28;;;5.35;;
24743;SDS011;12844;52.110;5.548;2022-10-15T05:53:36;6.85;;;5.47;;
24743;SDS011;12844;52.110;5.548;2022-10-15T05:56:02;6.68;;;5.57;;
24743;SDS011;12844;52.110;5.548;2022-10-15T05:58:29;6.20;;;5.10;;
24743;SDS011;12844;52.110;5.548;2022-10-15T06:00:57;7.22;;;5.50;;
24743;SDS011;12844;52.110;5.548;2022-10-15T06:03:24;8.30;;;6.13;;
24743;SDS011;12844;52.110;5.548;2022-10-15T06:05:50;6.78;;;5.80;;
24743;SDS011;12844;52.110;5.548;2022-10-15T06:08:15;7.70;;;6.65;;
24743;SDS011;12844;52.110;5.548;2022-10-15T06:10:42;7.03;;;6.32;;
24743;SDS011;12844;52.110;5.548;2022-10-15T06:13:08;7.07;;;6.13;;
24743;SDS011;12844;52.110;5.548;2022-10-15T06:15:34;7.30;;;6.05;;
24743;SDS011;12844;52.110;5.548;2022-10-15T06:18:02;6.80;;;6.10;;
24743;SDS011;12844;52.110;5.548;2022-10-15T06:20:28;6.85;;;5.97;;
24743;SDS011;12844;52.110;5.548;2022-10-15T06:22:57;7.30;;;6.45;;
24743;SDS011;12844;52.110;5.548;2022-10-15T06:25:23;8.05;;;6.10;;
24743;SDS011;12844;52.110;5.548;2022-10-15T06:27:49;7.88;;;6.32;;
24743;SDS011;12844;52.110;5.548;2022-10-15T06:30:15;8.77;;;6.70;;
24743;SDS011;12844;52.110;5.548;2022-10-15T06:32:50;8.18;;;7.03;;
24743;SDS011;12844;52.110;5.548;2022-10-15T06:35:17;7.90;;;6.32;;
24743;SDS011;12844;52.110;5.548;2022-10-15T06:37:44;7.55;;;6.30;;
24743;SDS011;12844;52.110;5.548;2022-10-15T06:40:10;7.32;;;6.03;;
24743;SDS011;12844;52.110;5.548;2022-10-15T06:42:36;7.30;;;5.93;;
24743;SDS011;12844;52.110;5.548;2022-10-15T06:45:02;7.40;;;5.97;;
24743;SDS011;12844;52.110;5.548;2022-10-15T06:47:29;7.30;;;5.97;;
24743;SDS011;12844;52.110;5.548;2022-10-15T06:49:54;8.10;;;6.35;;
24743;SDS011;12844;52.110;5.548;2022-10-15T06:52:20;6.85;;;5.55;;
24743;SDS011;12844;52.110;5.548;2022-10-15T06:54:45;7.75;;;6.20;;
24743;SDS011;12844;52.110;5.548;2022-10-15T06:57:11;6.30;;;5.35;;
24743;SDS011;12844;52.110;5.548;2022-10-15T06:59:37;7.25;;;5.50;;
24743;SDS011;12844;52.110;5.548;2022-10-15T07:02:02;7.45;;;5.28;;
24743;SDS011;12844;52.110;5.548;2022-10-15T07:04:28;7.43;;;5.90;;
24743;SDS011;12844;52.110;5.548;2022-10-15T07:06:53;7.18;;;5.30;;
24743;SDS011;12844;52.110;5.548;2022-10-15T07:09:19;6.28;;;5.07;;
24743;SDS011;12844;52.110;5.548;2022-10-15T07:11:44;6.78;;;5.53;;
24743;SDS011;12844;52.110;5.548;2022-10-15T07:14:10;5.65;;;5.03;;
24743;SDS011;12844;52.110;5.548;2022-10-15T07:16:36;6.75;;;4.90;;
24743;SDS011;12844;52.110;5.548;2022-10-15T07:19:03;6.13;;;4.93;;
24743;SDS011;12844;52.110;5.548;2022-10-15T07:21:29;5.78;;;4.90;;
24743;SDS011;12844;52.110;5.548;2022-10-15T07:23:54;9.23;;;4.85;;
24743;SDS011;12844;52.110;5.548;2022-10-15T07:26:20;8.40;;;5.22;;
24743;SDS011;12844;52.110;5.548;2022-10-15T07:28:45;7.25;;;5.32;;
24743;SDS011;12844;52.110;5.548;2022-10-15T07:31:11;6.57;;;5.35;;
24743;SDS011;12844;52.110;5.548;2022-10-15T07:33:38;8.10;;;5.10;;
24743;SDS011;12844;52.110;5.548;2022-10-15T07:36:06;6.32;;;4.95;;
24743;SDS011;12844;52.110;5.548;2022-10-15T07:38:33;7.65;;;4.85;;
24743;SDS011;12844;52.110;5.548;2022-10-15T07:40:59;7.35;;;4.53;;
24743;SDS011;12844;52.110;5.548;2022-10-15T07:43:26;6.40;;;4.63;;
24743;SDS011;12844;52.110;5.548;2022-10-15T07:45:52;5.90;;;4.63;;
24743;SDS011;12844;52.110;5.548;2022-10-15T07:48:18;7.03;;;4.68;;
24743;SDS011;12844;52.110;5.548;2022-10-15T07:50:44;8.48;;;5.07;;
24743;SDS011;12844;52.110;5.548;2022-10-15T07:53:10;6.00;;;4.90;;
24743;SDS011;12844;52.110;5.548;2022-10-15T07:55:35;6.75;;;4.78;;
24743;SDS011;12844;52.110;5.548;2022-10-15T07:58:01;7.05;;;4.90;;
24743;SDS011;12844;52.110;5.548;2022-10-15T08:00:29;5.47;;;4.13;;
24743;SDS011;12844;52.110;5.548;2022-10-15T08:02:56;6.25;;;4.38;;
24743;SDS011;12844;52.110;5.548;2022-10-15T08:05:21;6.95;;;4.97;;
24743;SDS011;12844;52.110;5.548;2022-10-15T08:07:47;6.93;;;5.18;;
24743;SDS011;12844;52.110;5.548;2022-10-15T08:10:13;6.55;;;4.78;;
24743;SDS011;12844;52.110;5.548;2022-10-15T08:12:38;8.93;;;4.75;;
24743;SDS011;12844;52.110;5.548;2022-10-15T08:15:04;5.90;;;4.63;;
24743;SDS011;12844;52.110;5.548;2022-10-15T08:17:30;7.90;;;4.88;;
24743;SDS011;12844;52.110;5.548;2022-10-15T08:19:56;4.70;;;4.10;;
24743;SDS011;12844;52.110;5.548;2022-10-15T08:22:22;5.93;;;4.93;;
24743;SDS011;12844;52.110;5.548;2022-10-15T08:24:47;6.97;;;4.70;;
24743;SDS011;12844;52.110;5.548;2022-10-15T08:27:13;6.57;;;4.53;;
24743;SDS011;12844;52.110;5.548;2022-10-15T08:29:38;5.82;;;4.80;;
24743;SDS011;12844;52.110;5.548;2022-10-15T08:32:04;5.30;;;4.45;;
24743;SDS011;12844;52.110;5.548;2022-10-15T08:34:29;5.40;;;4.50;;
24743;SDS011;12844;52.110;5.548;2022-10-15T08:36:55;5.50;;;4.35;;
24743;SDS011;12844;52.110;5.548;2022-10-15T08:39:20;5.00;;;4.28;;
24743;SDS011;12844;52.110;5.548;2022-10-15T08:44:21;6.47;;;4.82;;
24743;SDS011;12844;52.110;5.548;2022-10-15T08:49:58;6.50;;;4.30;;
24743;SDS011;12844;52.110;5.548;2022-10-15T08:55:07;6.93;;;4.63;;
24743;SDS011;12844;52.110;5.548;2022-10-15T09:00:18;6.28;;;4.70;;
24743;SDS011;12844;52.110;5.548;2022-10-15T09:02:51;7.03;;;4.33;;
24743;SDS011;12844;52.110;5.548;2022-10-15T09:05:34;6.72;;;4.22;;
24743;SDS011;12844;52.110;5.548;2022-10-15T09:08:06;9.30;;;4.80;;
24743;SDS011;12844;52.110;5.548;2022-10-15T09:10:51;6.07;;;4.72;;
24743;SDS011;12844;52.110;5.548;2022-10-15T09:15:53;7.30;;;4.68;;
24743;SDS011;12844;52.110;5.548;2022-10-15T09:18:24;8.18;;;5.40;;
24743;SDS011;12844;52.110;5.548;2022-10-15T09:20:54;10.65;;;4.72;;
24743;SDS011;12844;52.110;5.548;2022-10-15T09:23:22;5.22;;;4.63;;
24743;SDS011;12844;52.110;5.548;2022-10-15T09:26:42;7.07;;;4.85;;
24743;SDS011;12844;52.110;5.548;2022-10-15T09:31:27;7.18;;;4.40;;
24743;SDS011;12844;52.110;5.548;2022-10-15T09:36:32;8.18;;;4.72;;
24743;SDS011;12844;52.110;5.548;2022-10-15T09:44:46;6.22;;;4.70;;
24743;SDS011;12844;52.110;5.548;2022-10-15T09:47:28;6.65;;;4.75;;
24743;SDS011;12844;52.110;5.548;2022-10-15T09:49:58;8.05;;;5.03;;
24743;SDS011;12844;52.110;5.548;2022-10-15T09:55:23;7.55;;;5.10;;
24743;SDS011;12844;52.110;5.548;2022-10-15T09:57:56;7.65;;;5.10;;
24743;SDS011;12844;52.110;5.548;2022-10-15T10:00:26;7.07;;;5.00;;
24743;SDS011;12844;52.110;5.548;2022-10-15T10:03:20;8.18;;;5.25;;
24743;SDS011;12844;52.110;5.548;2022-10-15T10:05:48;7.65;;;5.18;;
24743;SDS011;12844;52.110;5.548;2022-10-15T10:08:18;6.82;;;4.55;;
24743;SDS011;12844;52.110;5.548;2022-10-15T10:11:20;7.60;;;5.10;;
24743;SDS011;12844;52.110;5.548;2022-10-15T10:16:23;7.28;;;4.70;;
24743;SDS011;12844;52.110;5.548;2022-10-15T10:21:39;8.55;;;4.32;;
24743;SDS011;12844;52.110;5.548;2022-10-15T10:27:01;8.50;;;4.97;;
24743;SDS011;12844;52.110;5.548;2022-10-15T10:29:27;7.93;;;4.80;;
24743;SDS011;12844;52.110;5.548;2022-10-15T10:31:58;6.57;;;4.10;;
24743;SDS011;12844;52.110;5.548;2022-10-15T10:34:29;9.05;;;5.35;;
24743;SDS011;12844;52.110;5.548;2022-10-15T10:36:56;5.20;;;4.20;;
24743;SDS011;12844;52.110;5.548;2022-10-15T10:41:58;8.25;;;4.90;;
24743;SDS011;12844;52.110;5.548;2022-10-15T10:44:38;6.57;;;4.68;;
24743;SDS011;12844;52.110;5.548;2022-10-15T10:47:18;7.32;;;4.68;;
24743;SDS011;12844;52.110;5.548;2022-10-15T10:49:52;7.03;;;4.20;;
24743;SDS011;12844;52.110;5.548;2022-10-15T10:52:35;5.80;;;4.38;;
24743;SDS011;12844;52.110;5.548;2022-10-15T11:00:11;6.18;;;4.35;;
24743;SDS011;12844;52.110;5.548;2022-10-15T11:02:41;7.57;;;4.22;;
24743;SDS011;12844;52.110;5.548;2022-10-15T11:05:08;5.50;;;4.15;;
24743;SDS011;12844;52.110;5.548;2022-10-15T11:07:52;7.20;;;3.65;;
24743;SDS011;12844;52.110;5.548;2022-10-15T11:10:44;6.38;;;4.15;;
24743;SDS011;12844;52.110;5.548;2022-10-15T11:16:26;15.80;;;3.60;;
24743;SDS011;12844;52.110;5.548;2022-10-15T11:19:10;6.80;;;3.70;;
24743;SDS011;12844;52.110;5.548;2022-10-15T11:21:56;5.55;;;3.63;;
24743;SDS011;12844;52.110;5.548;2022-10-15T11:24:55;4.85;;;3.63;;
24743;SDS011;12844;52.110;5.548;2022-10-15T11:30:28;6.53;;;3.33;;
24743;SDS011;12844;52.110;5.548;2022-10-15T11:38:43;5.70;;;3.30;;
24743;SDS011;12844;52.110;5.548;2022-10-15T11:47:37;7.22;;;3.50;;
24743;SDS011;12844;52.110;5.548;2022-10-15T11:50:16;6.32;;;2.90;;
24743;SDS011;12844;52.110;5.548;2022-10-15T11:55:49;5.25;;;2.85;;
24743;SDS011;12844;52.110;5.548;2022-10-15T11:58:33;7.70;;;2.75;;
24743;SDS011;12844;52.110;5.548;2022-10-15T12:01:19;5.00;;;2.47;;
24743;SDS011;12844;52.110;5.548;2022-10-15T12:04:04;4.32;;;2.50;;
24743;SDS011;12844;52.110;5.548;2022-10-15T12:06:35;6.20;;;2.30;;
24743;SDS011;12844;52.110;5.548;2022-10-15T12:11:47;3.80;;;2.22;;
24743;SDS011;12844;52.110;5.548;2022-10-15T12:14:42;3.92;;;2.67;;
24743;SDS011;12844;52.110;5.548;2022-10-15T12:17:24;4.30;;;2.38;;
24743;SDS011;12844;52.110;5.548;2022-10-15T12:20:04;4.50;;;2.63;;
24743;SDS011;12844;52.110;5.548;2022-10-15T12:28:31;3.20;;;2.17;;
24743;SDS011;12844;52.110;5.548;2022-10-15T12:30:56;5.28;;;2.30;;
24743;SDS011;12844;52.110;5.548;2022-10-15T12:33:25;5.22;;;2.58;;
24743;SDS011;12844;52.110;5.548;2022-10-15T12:36:20;2.45;;;2.05;;
24743;SDS011;12844;52.110;5.548;2022-10-15T12:38:58;5.32;;;2.50;;
24743;SDS011;12844;52.110;5.548;2022-10-15T12:41:41;5.90;;;2.78;;
24743;SDS011;12844;52.110;5.548;2022-10-15T12:44:25;8.30;;;2.50;;
24743;SDS011;12844;52.110;5.548;2022-10-15T12:46:55;4.80;;;2.00;;
24743;SDS011;12844;52.110;5.548;2022-10-15T12:51:51;4.03;;;2.20;;
24743;SDS011;12844;52.110;5.548;2022-10-15T12:57:49;5.57;;;2.30;;
24743;SDS011;12844;52.110;5.548;2022-10-15T13:02:49;4.45;;;2.00;;
24743;SDS011;12844;52.110;5.548;2022-10-15T13:05:30;3.65;;;2.40;;
24743;SDS011;12844;52.110;5.548;2022-10-15T13:07:58;3.20;;;2.00;;
24743;SDS011;12844;52.110;5.548;2022-10-15T13:10:29;4.82;;;2.45;;
24743;SDS011;12844;52.110;5.548;2022-10-15T13:13:00;5.75;;;2.30;;
24743;SDS011;12844;52.110;5.548;2022-10-15T13:15:28;3.72;;;2.28;;
24743;SDS011;12844;52.110;5.548;2022-10-15T13:18:03;2.85;;;2.13;;
24743;SDS011;12844;52.110;5.548;2022-10-15T13:20:33;4.32;;;2.10;;
24743;SDS011;12844;52.110;5.548;2022-10-15T13:23:09;4.05;;;2.28;;
24743;SDS011;12844;52.110;5.548;2022-10-15T13:25:42;4.22;;;2.08;;
24743;SDS011;12844;52.110;5.548;2022-10-15T13:30:57;2.20;;;1.83;;
24743;SDS011;12844;52.110;5.548;2022-10-15T13:33:23;3.90;;;2.53;;
24743;SDS011;12844;52.110;5.548;2022-10-15T13:35:49;3.55;;;1.98;;
24743;SDS011;12844;52.110;5.548;2022-10-15T13:38:22;4.20;;;1.95;;
24743;SDS011;12844;52.110;5.548;2022-10-15T13:40:49;5.03;;;2.17;;
24743;SDS011;12844;52.110;5.548;2022-10-15T13:45:47;2.45;;;1.83;;
24743;SDS011;12844;52.110;5.548;2022-10-15T13:48:21;6.53;;;2.15;;
24743;SDS011;12844;52.110;5.548;2022-10-15T13:50:55;5.90;;;2.42;;
24743;SDS011;12844;52.110;5.548;2022-10-15T13:53:29;5.90;;;2.22;;
24743;SDS011;12844;52.110;5.548;2022-10-15T13:55:58;4.07;;;2.03;;
24743;SDS011;12844;52.110;5.548;2022-10-15T13:58:26;5.35;;;2.25;;
24743;SDS011;12844;52.110;5.548;2022-10-15T14:03:28;3.78;;;1.90;;
24743;SDS011;12844;52.110;5.548;2022-10-15T14:05:55;4.97;;;2.22;;
24743;SDS011;12844;52.110;5.548;2022-10-15T14:10:57;3.88;;;1.85;;
24743;SDS011;12844;52.110;5.548;2022-10-15T14:13:24;4.18;;;1.90;;
24743;SDS011;12844;52.110;5.548;2022-10-15T14:15:51;4.47;;;1.88;;
24743;SDS011;12844;52.110;5.548;2022-10-15T14:18:27;4.80;;;2.00;;
24743;SDS011;12844;52.110;5.548;2022-10-15T14:20:56;3.95;;;2.20;;
24743;SDS011;12844;52.110;5.548;2022-10-15T14:23:23;4.88;;;2.00;;
24743;SDS011;12844;52.110;5.548;2022-10-15T14:25:51;5.32;;;2.17;;
24743;SDS011;12844;52.110;5.548;2022-10-15T14:28:23;3.90;;;2.08;;
24743;SDS011;12844;52.110;5.548;2022-10-15T14:30:50;7.38;;;2.10;;
24743;SDS011;12844;52.110;5.548;2022-10-15T14:33:34;2.92;;;2.20;;
24743;SDS011;12844;52.110;5.548;2022-10-15T14:36:05;4.25;;;1.98;;
24743;SDS011;12844;52.110;5.548;2022-10-15T14:38:37;4.93;;;2.25;;
24743;SDS011;12844;52.110;5.548;2022-10-15T14:41:04;5.90;;;2.08;;
24743;SDS011;12844;52.110;5.548;2022-10-15T14:43:42;5.07;;;2.10;;
24743;SDS011;12844;52.110;5.548;2022-10-15T14:46:11;5.70;;;2.50;;
24743;SDS011;12844;52.110;5.548;2022-10-15T14:48:41;3.25;;;1.95;;
24743;SDS011;12844;52.110;5.548;2022-10-15T14:51:11;6.72;;;2.45;;
24743;SDS011;12844;52.110;5.548;2022-10-15T14:53:42;6.10;;;2.20;;
24743;SDS011;12844;52.110;5.548;2022-10-15T14:56:14;3.90;;;2.13;;
24743;SDS011;12844;52.110;5.548;2022-10-15T14:58:50;4.90;;;2.28;;
24743;SDS011;12844;52.110;5.548;2022-10-15T15:01:18;3.58;;;2.28;;
24743;SDS011;12844;52.110;5.548;2022-10-15T15:03:46;7.00;;;1.90;;
24743;SDS011;12844;52.110;5.548;2022-10-15T15:06:14;3.88;;;1.95;;
24743;SDS011;12844;52.110;5.548;2022-10-15T15:08:40;4.90;;;2.17;;
24743;SDS011;12844;52.110;5.548;2022-10-15T15:11:06;4.32;;;1.80;;
24743;SDS011;12844;52.110;5.548;2022-10-15T15:13:37;3.03;;;1.73;;
24743;SDS011;12844;52.110;5.548;2022-10-15T15:16:04;2.50;;;1.88;;
24743;SDS011;12844;52.110;5.548;2022-10-15T15:18:31;2.45;;;1.60;;
24743;SDS011;12844;52.110;5.548;2022-10-15T15:20:57;3.40;;;1.83;;
24743;SDS011;12844;52.110;5.548;2022-10-15T15:23:26;3.33;;;2.10;;
24743;SDS011;12844;52.110;5.548;2022-10-15T15:25:53;4.00;;;2.13;;
24743;SDS011;12844;52.110;5.548;2022-10-15T15:28:20;3.13;;;1.92;;
24743;SDS011;12844;52.110;5.548;2022-10-15T15:30:59;4.70;;;2.10;;
24743;SDS011;12844;52.110;5.548;2022-10-15T15:33:26;3.33;;;2.00;;
24743;SDS011;12844;52.110;5.548;2022-10-15T15:35:59;3.30;;;1.80;;
24743;SDS011;12844;52.110;5.548;2022-10-15T15:38:29;3.10;;;1.92;;
24743;SDS011;12844;52.110;5.548;2022-10-15T15:40:59;4.30;;;2.15;;
24743;SDS011;12844;52.110;5.548;2022-10-15T15:43:27;3.45;;;2.22;;
24743;SDS011;12844;52.110;5.548;2022-10-15T15:45:52;2.88;;;1.75;;
24743;SDS011;12844;52.110;5.548;2022-10-15T15:48:18;3.17;;;1.60;;
24743;SDS011;12844;52.110;5.548;2022-10-15T15:50:44;4.03;;;2.00;;
24743;SDS011;12844;52.110;5.548;2022-10-15T15:53:11;4.40;;;1.90;;
24743;SDS011;12844;52.110;5.548;2022-10-15T15:55:37;4.38;;;1.88;;
24743;SDS011;12844;52.110;5.548;2022-10-15T15:58:02;5.25;;;2.33;;
24743;SDS011;12844;52.110;5.548;2022-10-15T16:00:28;3.13;;;1.65;;
24743;SDS011;12844;52.110;5.548;2022-10-15T16:02:53;6.40;;;2.05;;
24743;SDS011;12844;52.110;5.548;2022-10-15T16:05:19;4.55;;;1.90;;
24743;SDS011;12844;52.110;5.548;2022-10-15T16:07:47;4.55;;;1.80;;
24743;SDS011;12844;52.110;5.548;2022-10-15T16:10:13;3.50;;;1.60;;
24743;SDS011;12844;52.110;5.548;2022-10-15T16:12:38;4.28;;;1.60;;
24743;SDS011;12844;52.110;5.548;2022-10-15T16:15:04;3.72;;;1.88;;
24743;SDS011;12844;52.110;5.548;2022-10-15T16:17:31;2.72;;;1.50;;
24743;SDS011;12844;52.110;5.548;2022-10-15T16:19:57;3.22;;;1.92;;
24743;SDS011;12844;52.110;5.548;2022-10-15T16:22:22;3.53;;;1.60;;
24743;SDS011;12844;52.110;5.548;2022-10-15T16:24:48;2.78;;;1.77;;
24743;SDS011;12844;52.110;5.548;2022-10-15T16:27:13;3.15;;;1.80;;
24743;SDS011;12844;52.110;5.548;2022-10-15T16:29:39;2.67;;;1.60;;
24743;SDS011;12844;52.110;5.548;2022-10-15T16:32:04;3.65;;;1.80;;
24743;SDS011;12844;52.110;5.548;2022-10-15T16:34:30;3.53;;;1.80;;
24743;SDS011;12844;52.110;5.548;2022-10-15T16:36:55;2.95;;;1.45;;
24743;SDS011;12844;52.110;5.548;2022-10-15T16:39:21;4.47;;;1.50;;
24743;SDS011;12844;52.110;5.548;2022-10-15T16:41:47;3.53;;;1.60;;
24743;SDS011;12844;52.110;5.548;2022-10-15T16:44:12;2.22;;;1.60;;
24743;SDS011;12844;52.110;5.548;2022-10-15T16:46:39;3.92;;;1.80;;
24743;SDS011;12844;52.110;5.548;2022-10-15T16:49:05;4.40;;;1.50;;
24743;SDS011;12844;52.110;5.548;2022-10-15T16:51:30;2.75;;;1.80;;
24743;SDS011;12844;52.110;5.548;2022-10-15T16:53:56;4.10;;;1.65;;
24743;SDS011;12844;52.110;5.548;2022-10-15T16:56:23;2.10;;;1.48;;
24743;SDS011;12844;52.110;5.548;2022-10-15T16:58:51;3.42;;;1.80;;
24743;SDS011;12844;52.110;5.548;2022-10-15T17:01:18;3.67;;;1.90;;
24743;SDS011;12844;52.110;5.548;2022-10-15T17:03:46;4.18;;;1.60;;